TAF AMD YMHB 050752Z 0507/0606 20016KT CAVOK
FM051000 23010KT CAVOK
FM051400 34006KT CAVOK
FM060300 14012KT CAVOK
From batch tds/tafs/production/2024/2/5/h08_m00_tafs.cache.xml.gz
Issued (18 days ago)
Forecasts
0507/0510 20016KT 6+SM NSC

---
wx_string: NSW
fcst_time_to: '2024-02-05T10:00:00Z'
sky_condition:
- sky_cover: NSC
wind_speed_kt: '16'
fcst_time_from: '2024-02-05T07:00:00Z'
wind_dir_degrees: '200'
visibility_statute_mi: 6+

FM051000 23010KT 6+SM NSC

---
wx_string: NSW
fcst_time_to: '2024-02-05T14:00:00Z'
sky_condition:
- sky_cover: NSC
wind_speed_kt: '10'
fcst_time_from: '2024-02-05T10:00:00Z'
change_indicator: FM
wind_dir_degrees: '230'
visibility_statute_mi: 6+

FM051400 34006KT 6+SM NSC

---
wx_string: NSW
fcst_time_to: '2024-02-06T03:00:00Z'
sky_condition:
- sky_cover: NSC
wind_speed_kt: '6'
fcst_time_from: '2024-02-05T14:00:00Z'
change_indicator: FM
wind_dir_degrees: '340'
visibility_statute_mi: 6+

FM060300 14012KT 6+SM NSC

---
wx_string: NSW
fcst_time_to: '2024-02-06T06:00:00Z'
sky_condition:
- sky_cover: NSC
wind_speed_kt: '12'
fcst_time_from: '2024-02-06T03:00:00Z'
change_indicator: FM
wind_dir_degrees: '140'
visibility_statute_mi: 6+

talk